ASA1484 KLAX-KLAS
Flight info
| Callsign | ASA1484 |
|---|---|
| Flight time | 0h 42m |
| Altitude | 27000 |
| Route | ORCKA5 MISEN RNDRZ4 |
| Aircraft | A320/M-SDE3FGHIRWY/LB1 |
Departure
| Time | 2026-05-04 19:34 |
|---|---|
| Airport | Los Angeles International Airport (KLAX) |
Arrival
| Time | 2026-05-04 20:16 |
|---|---|
| Airport | Harry Reid International Airport (KLAS) |
| Time | Latitude | Longitude | Altitude | Speed | Heading |
|---|---|---|---|---|---|
| 2026-05-04 19:09 | 33.94108 | -118.40509 | 94 ft | 0 kts | 83° |
| 2026-05-04 19:22 | 33.94108 | -118.40512 | 94 ft | 2 kts | 83° |
| 2026-05-04 19:23 | 33.94105 | -118.40538 | 93 ft | 2 kts | 83° |
| 2026-05-04 19:23 | 33.94108 | -118.40562 | 93 ft | 4 kts | 151° |
| 2026-05-04 19:23 | 33.94115 | -118.40566 | 94 ft | 4 kts | 173° |
| 2026-05-04 19:23 | 33.94088 | -118.40562 | 95 ft | 4 kts | 173° |
| 2026-05-04 19:24 | 33.94062 | -118.40558 | 93 ft | 4 kts | 173° |
| 2026-05-04 19:24 | 33.94035 | -118.40554 | 93 ft | 4 kts | 173° |
| 2026-05-04 19:24 | 33.94008 | -118.40550 | 95 ft | 4 kts | 173° |
| 2026-05-04 19:24 | 33.94001 | -118.40549 | 95 ft | 0 kts | 173° |
| 2026-05-04 19:26 | 33.93982 | -118.40546 | 92 ft | 13 kts | 173° |
| 2026-05-04 19:26 | 33.93847 | -118.40526 | 94 ft | 19 kts | 169° |
| 2026-05-04 19:26 | 33.93835 | -118.40425 | 95 ft | 14 kts | 82° |
| 2026-05-04 19:26 | 33.93855 | -118.40229 | 96 ft | 27 kts | 84° |
| 2026-05-04 19:27 | 33.93877 | -118.40009 | 96 ft | 26 kts | 83° |
| 2026-05-04 19:27 | 33.93898 | -118.39802 | 96 ft | 24 kts | 83° |
| 2026-05-04 19:27 | 33.93919 | -118.39610 | 95 ft | 22 kts | 83° |
| 2026-05-04 19:27 | 33.93937 | -118.39430 | 96 ft | 21 kts | 83° |
| 2026-05-04 19:28 | 33.93954 | -118.39258 | 94 ft | 20 kts | 83° |
| 2026-05-04 19:28 | 33.93973 | -118.39077 | 94 ft | 29 kts | 83° |
| 2026-05-04 19:28 | 33.93997 | -118.38838 | 96 ft | 28 kts | 83° |
| 2026-05-04 19:28 | 33.94020 | -118.38616 | 96 ft | 25 kts | 83° |
| 2026-05-04 19:29 | 33.94041 | -118.38415 | 98 ft | 23 kts | 83° |
| 2026-05-04 19:29 | 33.94060 | -118.38231 | 95 ft | 22 kts | 82° |
| 2026-05-04 19:29 | 33.94079 | -118.38054 | 93 ft | 18 kts | 83° |
| 2026-05-04 19:29 | 33.94073 | -118.38016 | 93 ft | 0 kts | 130° |
| 2026-05-04 19:33 | 33.94068 | -118.38011 | 95 ft | 6 kts | 135° |
| 2026-05-04 19:33 | 33.93981 | -118.38039 | 96 ft | 17 kts | 259° |
| 2026-05-04 19:33 | 33.93950 | -118.38340 | 99 ft | 72 kts | 263° |
| 2026-05-04 19:33 | 33.93851 | -118.39272 | 101 ft | 148 kts | 263° |
| 2026-05-04 19:34 | 33.93715 | -118.40661 | 457 ft | 185 kts | 262° |
| 2026-05-04 19:34 | 33.93569 | -118.42362 | 791 ft | 221 kts | 264° |
| 2026-05-04 19:34 | 33.93471 | -118.44116 | 1063 ft | 196 kts | 264° |
| 2026-05-04 19:34 | 33.93378 | -118.45741 | 1489 ft | 204 kts | 264° |
| 2026-05-04 19:35 | 33.93317 | -118.46916 | 1916 ft | 220 kts | 265° |
| 2026-05-04 19:35 | 33.93210 | -118.48768 | 2536 ft | 240 kts | 265° |
| 2026-05-04 19:35 | 33.93409 | -118.50779 | 3572 ft | 249 kts | 291° |
| 2026-05-04 19:35 | 33.94224 | -118.52641 | 4706 ft | 254 kts | 294° |
| 2026-05-04 19:36 | 33.94586 | -118.54636 | 5723 ft | 259 kts | 268° |
| 2026-05-04 19:36 | 33.93769 | -118.57321 | 7084 ft | 266 kts | 234° |
| 2026-05-04 19:36 | 33.92867 | -118.58370 | 7791 ft | 270 kts | 217° |
| 2026-05-04 19:36 | 33.91112 | -118.59240 | 8823 ft | 279 kts | 193° |
| 2026-05-04 19:37 | 33.89147 | -118.59064 | 9801 ft | 292 kts | 165° |
| 2026-05-04 19:37 | 33.87403 | -118.57742 | 10695 ft | 306 kts | 135° |
| 2026-05-04 19:37 | 33.86375 | -118.55474 | 11565 ft | 318 kts | 104° |
| 2026-05-04 19:37 | 33.86388 | -118.52845 | 12439 ft | 325 kts | 74° |
| 2026-05-04 19:38 | 33.87433 | -118.50416 | 13157 ft | 338 kts | 52° |
| 2026-05-04 19:38 | 33.88996 | -118.48176 | 13553 ft | 361 kts | 45° |
| 2026-05-04 19:38 | 33.90798 | -118.45999 | 14189 ft | 372 kts | 42° |
| 2026-05-04 19:38 | 33.92681 | -118.43808 | 14916 ft | 381 kts | 45° |
| 2026-05-04 19:39 | 33.94390 | -118.41322 | 15654 ft | 390 kts | 51° |
| 2026-05-04 19:39 | 33.96018 | -118.38675 | 16437 ft | 398 kts | 53° |
| 2026-05-04 19:39 | 33.97619 | -118.35906 | 17201 ft | 407 kts | 55° |
| 2026-05-04 19:39 | 33.99215 | -118.33045 | 17936 ft | 415 kts | 56° |
| 2026-05-04 19:40 | 34.00830 | -118.30114 | 18626 ft | 424 kts | 56° |
| 2026-05-04 19:40 | 34.02663 | -118.26797 | 19377 ft | 432 kts | 56° |
| 2026-05-04 19:40 | 34.04138 | -118.24152 | 19982 ft | 437 kts | 56° |
| 2026-05-04 19:40 | 34.05854 | -118.21098 | 20646 ft | 443 kts | 55° |
| 2026-05-04 19:41 | 34.07604 | -118.18004 | 21257 ft | 449 kts | 55° |
| 2026-05-04 19:41 | 34.09382 | -118.14874 | 21853 ft | 456 kts | 55° |
| 2026-05-04 19:41 | 34.11113 | -118.11831 | 22435 ft | 462 kts | 55° |
| 2026-05-04 19:41 | 34.12937 | -118.08614 | 23003 ft | 468 kts | 56° |
| 2026-05-04 19:42 | 34.14781 | -118.05349 | 23516 ft | 473 kts | 56° |
| 2026-05-04 19:42 | 34.16643 | -118.02039 | 23938 ft | 480 kts | 56° |
| 2026-05-04 19:42 | 34.18527 | -117.98684 | 24338 ft | 485 kts | 56° |
| 2026-05-04 19:42 | 34.20355 | -117.95430 | 24706 ft | 491 kts | 56° |
| 2026-05-04 19:43 | 34.22254 | -117.92049 | 25053 ft | 495 kts | 56° |
| 2026-05-04 19:43 | 34.24200 | -117.88580 | 25326 ft | 502 kts | 56° |
| 2026-05-04 19:43 | 34.26169 | -117.85072 | 25691 ft | 506 kts | 56° |
| 2026-05-04 19:43 | 34.28150 | -117.81539 | 26049 ft | 509 kts | 56° |
| 2026-05-04 19:44 | 34.30144 | -117.77978 | 26403 ft | 514 kts | 56° |
| 2026-05-04 19:44 | 34.32154 | -117.74380 | 26789 ft | 518 kts | 57° |
| 2026-05-04 19:44 | 34.34099 | -117.70892 | 26981 ft | 522 kts | 57° |
| 2026-05-04 19:44 | 34.36129 | -117.67275 | 27024 ft | 514 kts | 56° |
| 2026-05-04 19:45 | 34.38135 | -117.63828 | 27020 ft | 504 kts | 55° |
| 2026-05-04 19:45 | 34.40188 | -117.60408 | 27014 ft | 501 kts | 54° |
| 2026-05-04 19:45 | 34.42255 | -117.57016 | 26998 ft | 500 kts | 54° |
| 2026-05-04 19:45 | 34.44340 | -117.53598 | 26997 ft | 510 kts | 54° |
| 2026-05-04 19:46 | 34.46459 | -117.50100 | 27008 ft | 517 kts | 54° |
| 2026-05-04 19:46 | 34.48599 | -117.46532 | 26994 ft | 529 kts | 54° |
| 2026-05-04 19:46 | 34.50771 | -117.42884 | 27030 ft | 536 kts | 54° |
| 2026-05-04 19:46 | 34.52918 | -117.39257 | 27019 ft | 521 kts | 54° |
| 2026-05-04 19:47 | 34.54992 | -117.35745 | 27025 ft | 504 kts | 55° |
| 2026-05-04 19:47 | 34.57017 | -117.32317 | 27025 ft | 498 kts | 55° |
| 2026-05-04 19:47 | 34.59030 | -117.28909 | 27026 ft | 496 kts | 54° |
| 2026-05-04 19:47 | 34.61012 | -117.25558 | 27021 ft | 495 kts | 54° |
| 2026-05-04 19:48 | 34.63017 | -117.22166 | 27010 ft | 495 kts | 54° |
| 2026-05-04 19:48 | 34.65024 | -117.18770 | 27000 ft | 495 kts | 54° |
| 2026-05-04 19:48 | 34.67031 | -117.15374 | 26930 ft | 496 kts | 54° |
| 2026-05-04 19:48 | 34.69044 | -117.11962 | 26946 ft | 498 kts | 55° |
| 2026-05-04 19:49 | 34.71057 | -117.08539 | 26945 ft | 498 kts | 55° |
| 2026-05-04 19:49 | 34.73068 | -117.05110 | 26947 ft | 498 kts | 55° |
| 2026-05-04 19:49 | 34.75079 | -117.01679 | 26946 ft | 498 kts | 55° |
| 2026-05-04 19:49 | 34.77062 | -116.98295 | 26950 ft | 498 kts | 55° |
| 2026-05-04 19:50 | 34.79074 | -116.94862 | 26956 ft | 498 kts | 55° |
| 2026-05-04 19:50 | 34.81287 | -116.91087 | 26963 ft | 498 kts | 55° |
| 2026-05-04 19:50 | 34.83098 | -116.88000 | 26999 ft | 498 kts | 55° |
| 2026-05-04 19:50 | 34.85303 | -116.84237 | 26969 ft | 497 kts | 55° |
| 2026-05-04 19:51 | 34.87109 | -116.81146 | 26971 ft | 496 kts | 55° |
| 2026-05-04 19:51 | 34.89313 | -116.77363 | 26971 ft | 496 kts | 55° |
| 2026-05-04 19:51 | 34.91104 | -116.74288 | 26972 ft | 496 kts | 55° |
| 2026-05-04 19:51 | 34.93269 | -116.70557 | 26971 ft | 496 kts | 55° |
| 2026-05-04 19:52 | 34.95069 | -116.67411 | 26962 ft | 496 kts | 56° |
| 2026-05-04 19:52 | 34.97192 | -116.63653 | 26947 ft | 496 kts | 56° |
| 2026-05-04 19:52 | 34.99146 | -116.60166 | 26940 ft | 496 kts | 56° |
| 2026-05-04 19:52 | 35.00889 | -116.57045 | 26934 ft | 496 kts | 56° |
| 2026-05-04 19:53 | 35.02830 | -116.53571 | 26917 ft | 496 kts | 56° |
| 2026-05-04 19:53 | 35.04779 | -116.50094 | 26906 ft | 496 kts | 56° |
| 2026-05-04 19:53 | 35.06728 | -116.46626 | 26901 ft | 496 kts | 56° |
| 2026-05-04 19:53 | 35.08678 | -116.43157 | 26898 ft | 495 kts | 56° |
| 2026-05-04 19:54 | 35.10752 | -116.39757 | 26916 ft | 505 kts | 48° |
| 2026-05-04 19:54 | 35.13173 | -116.36583 | 26920 ft | 516 kts | 45° |
| 2026-05-04 19:54 | 35.15636 | -116.33414 | 26773 ft | 510 kts | 45° |
| 2026-05-04 19:54 | 35.18063 | -116.30287 | 26357 ft | 504 kts | 45° |
| 2026-05-04 19:55 | 35.20424 | -116.27236 | 25967 ft | 498 kts | 45° |
| 2026-05-04 19:55 | 35.22783 | -116.24180 | 25604 ft | 490 kts | 45° |
| 2026-05-04 19:55 | 35.25081 | -116.21142 | 25205 ft | 484 kts | 46° |
| 2026-05-04 19:55 | 35.27319 | -116.18094 | 24800 ft | 479 kts | 47° |
| 2026-05-04 19:56 | 35.29509 | -116.15054 | 24405 ft | 474 kts | 47° |
| 2026-05-04 19:56 | 35.31668 | -116.12035 | 24023 ft | 468 kts | 47° |
| 2026-05-04 19:56 | 35.33805 | -116.09054 | 23646 ft | 462 kts | 47° |
| 2026-05-04 19:56 | 35.35907 | -116.06138 | 22879 ft | 454 kts | 46° |
| 2026-05-04 19:57 | 35.37989 | -116.03271 | 22068 ft | 447 kts | 46° |
| 2026-05-04 19:57 | 35.40042 | -116.00454 | 21316 ft | 440 kts | 46° |
| 2026-05-04 19:57 | 35.42037 | -115.97722 | 20569 ft | 433 kts | 46° |
| 2026-05-04 19:57 | 35.44027 | -115.94990 | 19823 ft | 426 kts | 47° |
| 2026-05-04 19:58 | 35.45985 | -115.92297 | 19129 ft | 419 kts | 47° |
| 2026-05-04 19:58 | 35.47907 | -115.89646 | 18457 ft | 412 kts | 47° |
| 2026-05-04 19:58 | 35.49782 | -115.87052 | 17949 ft | 399 kts | 47° |
| 2026-05-04 19:58 | 35.51589 | -115.84549 | 17575 ft | 385 kts | 47° |
| 2026-05-04 19:59 | 35.53358 | -115.82098 | 17211 ft | 382 kts | 47° |
| 2026-05-04 19:59 | 35.55106 | -115.79675 | 16880 ft | 377 kts | 48° |
| 2026-05-04 19:59 | 35.56838 | -115.77270 | 16508 ft | 375 kts | 48° |
| 2026-05-04 19:59 | 35.58559 | -115.74883 | 16234 ft | 369 kts | 48° |
| 2026-05-04 20:00 | 35.60250 | -115.72552 | 15993 ft | 363 kts | 47° |
| 2026-05-04 20:00 | 35.61914 | -115.70300 | 15719 ft | 359 kts | 47° |
| 2026-05-04 20:00 | 35.63590 | -115.68051 | 15539 ft | 355 kts | 47° |
| 2026-05-04 20:00 | 35.65251 | -115.65824 | 15357 ft | 353 kts | 47° |
| 2026-05-04 20:01 | 35.66902 | -115.63601 | 15170 ft | 351 kts | 47° |
| 2026-05-04 20:01 | 35.68542 | -115.61388 | 15004 ft | 350 kts | 47° |
| 2026-05-04 20:01 | 35.70173 | -115.59183 | 14825 ft | 348 kts | 48° |
| 2026-05-04 20:01 | 35.71799 | -115.56990 | 14650 ft | 346 kts | 46° |
| 2026-05-04 20:02 | 35.73621 | -115.55078 | 14468 ft | 343 kts | 33° |
| 2026-05-04 20:02 | 35.75423 | -115.53764 | 14319 ft | 341 kts | 28° |
| 2026-05-04 20:02 | 35.77454 | -115.52337 | 14151 ft | 340 kts | 28° |
| 2026-05-04 20:02 | 35.79505 | -115.50900 | 13978 ft | 339 kts | 28° |
| 2026-05-04 20:03 | 35.81551 | -115.49470 | 13802 ft | 337 kts | 28° |
| 2026-05-04 20:03 | 35.83582 | -115.48048 | 13622 ft | 335 kts | 29° |
| 2026-05-04 20:03 | 35.85607 | -115.46625 | 13435 ft | 336 kts | 29° |
| 2026-05-04 20:03 | 35.87632 | -115.45200 | 13266 ft | 335 kts | 29° |
| 2026-05-04 20:04 | 35.89656 | -115.43781 | 13100 ft | 334 kts | 29° |
| 2026-05-04 20:04 | 35.91679 | -115.42364 | 12870 ft | 335 kts | 29° |
| 2026-05-04 20:04 | 35.93710 | -115.40944 | 12480 ft | 335 kts | 29° |
| 2026-05-04 20:04 | 35.95740 | -115.39525 | 12051 ft | 335 kts | 29° |
| 2026-05-04 20:05 | 35.97752 | -115.38107 | 11700 ft | 332 kts | 32° |
| 2026-05-04 20:05 | 35.99497 | -115.36264 | 11344 ft | 328 kts | 51° |
| 2026-05-04 20:05 | 36.00697 | -115.33938 | 10925 ft | 324 kts | 70° |
| 2026-05-04 20:05 | 36.01274 | -115.31422 | 10663 ft | 312 kts | 87° |
| 2026-05-04 20:06 | 36.01301 | -115.28793 | 10409 ft | 303 kts | 98° |
| 2026-05-04 20:06 | 36.01171 | -115.26206 | 10135 ft | 301 kts | 98° |
| 2026-05-04 20:06 | 36.01043 | -115.23640 | 9873 ft | 298 kts | 98° |
| 2026-05-04 20:06 | 36.00917 | -115.21121 | 9594 ft | 297 kts | 98° |
| 2026-05-04 20:07 | 36.00791 | -115.18586 | 9402 ft | 290 kts | 98° |
| 2026-05-04 20:07 | 36.00674 | -115.16153 | 9289 ft | 278 kts | 98° |
| 2026-05-04 20:07 | 36.00562 | -115.13823 | 9170 ft | 266 kts | 98° |
| 2026-05-04 20:07 | 36.00454 | -115.11594 | 9057 ft | 255 kts | 99° |
| 2026-05-04 20:08 | 36.00347 | -115.09450 | 8889 ft | 247 kts | 99° |
| 2026-05-04 20:08 | 36.00239 | -115.07345 | 8645 ft | 243 kts | 99° |
| 2026-05-04 20:08 | 36.00132 | -115.05285 | 8423 ft | 238 kts | 99° |
| 2026-05-04 20:08 | 36.00028 | -115.03275 | 8211 ft | 232 kts | 99° |
| 2026-05-04 20:09 | 35.99929 | -115.01329 | 7998 ft | 228 kts | 99° |
| 2026-05-04 20:09 | 35.99880 | -114.99379 | 7694 ft | 227 kts | 96° |
| 2026-05-04 20:09 | 35.99868 | -114.97428 | 7359 ft | 227 kts | 95° |
| 2026-05-04 20:09 | 35.99864 | -114.95476 | 7069 ft | 227 kts | 96° |
| 2026-05-04 20:10 | 36.00000 | -114.93529 | 6744 ft | 233 kts | 76° |
| 2026-05-04 20:10 | 36.00824 | -114.91799 | 6464 ft | 237 kts | 48° |
| 2026-05-04 20:10 | 36.02144 | -114.90611 | 6133 ft | 235 kts | 29° |
| 2026-05-04 20:10 | 36.03663 | -114.89929 | 5821 ft | 231 kts | 9° |
| 2026-05-04 20:11 | 36.05234 | -114.89879 | 5560 ft | 222 kts | 348° |
| 2026-05-04 20:11 | 36.06651 | -114.90451 | 5349 ft | 206 kts | 319° |
| 2026-05-04 20:11 | 36.07354 | -114.91739 | 5224 ft | 169 kts | 269° |
| 2026-05-04 20:11 | 36.07326 | -114.93078 | 5085 ft | 148 kts | 262° |
| 2026-05-04 20:12 | 36.07343 | -114.94323 | 4895 ft | 143 kts | 263° |
| 2026-05-04 20:12 | 36.07353 | -114.95548 | 4726 ft | 141 kts | 262° |
| 2026-05-04 20:12 | 36.07358 | -114.96751 | 4544 ft | 139 kts | 262° |
| 2026-05-04 20:12 | 36.07361 | -114.97949 | 4357 ft | 139 kts | 262° |
| 2026-05-04 20:13 | 36.07362 | -114.99152 | 4175 ft | 141 kts | 263° |
| 2026-05-04 20:13 | 36.07364 | -115.00365 | 3995 ft | 141 kts | 263° |
| 2026-05-04 20:13 | 36.07365 | -115.01568 | 3821 ft | 138 kts | 264° |
| 2026-05-04 20:13 | 36.07365 | -115.02750 | 3646 ft | 137 kts | 264° |
| 2026-05-04 20:14 | 36.07365 | -115.03942 | 3462 ft | 140 kts | 265° |
| 2026-05-04 20:14 | 36.07366 | -115.05123 | 3288 ft | 139 kts | 265° |
| 2026-05-04 20:14 | 36.07366 | -115.06317 | 3105 ft | 137 kts | 265° |
| 2026-05-04 20:14 | 36.07366 | -115.07496 | 2928 ft | 138 kts | 262° |
| 2026-05-04 20:15 | 36.07365 | -115.08698 | 2749 ft | 140 kts | 259° |
| 2026-05-04 20:15 | 36.07363 | -115.09890 | 2526 ft | 137 kts | 257° |
| 2026-05-04 20:15 | 36.07371 | -115.11062 | 2336 ft | 136 kts | 258° |
| 2026-05-04 20:15 | 36.07360 | -115.12243 | 2148 ft | 139 kts | 259° |
| 2026-05-04 20:16 | 36.07379 | -115.13430 | 2075 ft | 127 kts | 256° |
| 2026-05-04 20:16 | 36.07358 | -115.14294 | 2088 ft | 76 kts | 269° |
| 2026-05-04 20:16 | 36.07367 | -115.14727 | 2093 ft | 27 kts | 280° |
| 2026-05-04 20:16 | 36.07405 | -115.14876 | 2096 ft | 16 kts | 292° |
| 2026-05-04 20:17 | 36.07449 | -115.14998 | 2098 ft | 15 kts | 296° |
| 2026-05-04 20:17 | 36.07498 | -115.15095 | 2100 ft | 13 kts | 310° |
| 2026-05-04 20:17 | 36.07566 | -115.15153 | 2107 ft | 8 kts | 336° |
| 2026-05-04 20:17 | 36.07606 | -115.15168 | 2109 ft | 5 kts | 12° |
| 2026-05-04 20:18 | 36.07648 | -115.15136 | 2111 ft | 11 kts | 34° |
| 2026-05-04 20:18 | 36.07787 | -115.15101 | 2101 ft | 27 kts | 358° |
| 2026-05-04 20:18 | 36.07974 | -115.15101 | 2098 ft | 26 kts | 1° |
| 2026-05-04 20:18 | 36.08142 | -115.15072 | 2097 ft | 23 kts | 41° |
| 2026-05-04 20:19 | 36.08220 | -115.15054 | 2097 ft | 6 kts | 336° |
| 2026-05-04 20:19 | 36.08225 | -115.15057 | 2097 ft | 0 kts | 336° |